Time;durP1;ratioP1;P1;durP2;ratioP2;P2;SDS_P1;SDS_P2;PMS_P1;PMS_P2;Temp;Humidity;BMP_temperature;BMP_pressure;BME280_temperature;BME280_humidity;BME280_pressure;Samples;Min_cycle;Max_cycle;Signal;HPM_P1;HPM_P2
2024/01/08 00:02:05;;;;;;;10.45;7.18;;;;;;;1.54;60.58;94656.63;6182052;23;20009;-85
2024/01/08 00:04:30;;;;;;;11.73;7.53;;;;;;;1.48;61.56;94636.69;6157998;23;20001;-85
2024/01/08 00:06:56;;;;;;;11.48;7.22;;;;;;;1.42;61.97;94650.84;6133935;23;20029;-85
2024/01/08 00:09:21;;;;;;;10.05;6.47;;;;;;;1.32;62.07;94644.94;6159941;23;20009;-85
2024/01/08 00:11:47;;;;;;;12.63;8.30;;;;;;;1.51;61.68;94652.59;6185365;23;20005;-85
2024/01/08 00:14:13;;;;;;;11.57;7.80;;;;;;;1.55;61.31;94650.56;6135315;23;20092;-85
2024/01/08 00:16:38;;;;;;;13.15;8.07;;;;;;;1.39;61.88;94645.19;6182776;23;20013;-86
2024/01/08 00:19:04;;;;;;;13.32;8.48;;;;;;;1.35;62.39;94650.59;6159049;23;20025;-85
2024/01/08 00:21:29;;;;;;;12.73;7.97;;;;;;;1.64;61.75;94648.94;6184303;23;20012;-86
2024/01/08 00:23:54;;;;;;;10.75;7.22;;;;;;;0.67;63.69;94649.69;6134992;23;20040;-85
2024/01/08 00:26:20;;;;;;;13.80;8.70;;;;;;;1.21;62.98;94645.84;6134472;23;20193;-85
2024/01/08 00:28:45;;;;;;;13.07;8.30;;;;;;;1.26;62.69;94642.91;6159424;23;20009;-85
2024/01/08 00:31:11;;;;;;;11.30;7.55;;;;;;;0.85;62.50;94637.06;6184125;23;20013;-85
2024/01/08 00:33:36;;;;;;;13.27;7.90;;;;;;;1.05;62.72;94623.34;6159163;23;20075;-85
2024/01/08 00:36:02;;;;;;;14.73;8.52;;;;;;;1.16;62.63;94638.59;6159424;23;20005;-86
2024/01/08 00:38:27;;;;;;;13.80;8.57;;;;;;;1.13;62.18;94641.41;6158463;23;20005;-85
2024/01/08 00:40:53;;;;;;;11.88;7.70;;;;;;;1.33;61.69;94637.09;6134844;23;20020;-86
2024/01/08 00:43:18;;;;;;;12.90;7.63;;;;;;;1.33;62.18;94639.66;6183972;23;20001;-85
2024/01/08 00:45:44;;;;;;;11.57;7.70;;;;;;;1.27;62.13;94636.81;6134263;23;20028;-85
2024/01/08 00:48:09;;;;;;;12.20;7.95;;;;;;;1.01;62.88;94619.44;6159262;23;20009;-85
2024/01/08 00:50:35;;;;;;;11.75;7.93;;;;;;;1.19;62.15;94636.69;6159942;23;20061;-85
2024/01/08 00:53:00;;;;;;;11.77;7.50;;;;;;;0.90;62.88;94645.97;6133894;23;20039;-85
2024/01/08 00:55:25;;;;;;;10.57;7.90;;;;;;;0.55;62.62;94661.75;6134606;23;20008;-85
2024/01/08 00:57:51;;;;;;;12.50;7.97;;;;;;;0.78;63.44;94640.16;6159335;23;20013;-86
2024/01/08 01:00:18;;;;;;;12.63;8.13;;;;;;;1.12;62.57;94650.03;6183577;23;20043;-85
2024/01/08 01:02:44;;;;;;;13.57;8.68;;;;;;;0.98;62.92;94660.66;6159466;23;20009;-85
2024/01/08 01:05:09;;;;;;;11.38;8.07;;;;;;;0.53;63.63;94636.34;6134016;23;20017;-85
2024/01/08 01:07:35;;;;;;;12.65;8.13;;;;;;;0.60;63.82;94661.41;6158518;23;20005;-85
2024/01/08 01:10:00;;;;;;;13.07;7.50;;;;;;;0.49;63.17;94650.28;6184100;23;20062;-85
2024/01/08 01:12:26;;;;;;;12.52;8.10;;;;;;;-0.05;65.35;94654.00;6134085;23;20006;-85
2024/01/08 01:14:51;;;;;;;12.13;7.57;;;;;;;0.32;65.09;94669.63;6159348;23;20015;-85
2024/01/08 01:17:17;;;;;;;9.93;7.32;;;;;;;0.15;65.26;94670.22;6158439;23;20005;-85
2024/01/08 01:19:42;;;;;;;10.93;7.20;;;;;;;0.10;64.85;94674.94;6183351;23;20005;-85
2024/01/08 01:22:08;;;;;;;10.35;6.65;;;;;;;0.30;64.28;94684.28;6158851;23;20091;-85
2024/01/08 01:24:33;;;;;;;12.73;8.10;;;;;;;0.34;64.75;94684.84;6133822;23;20017;-86
2024/01/08 01:27:00;;;;;;;11.55;7.82;;;;;;;0.41;63.54;94685.16;6183921;23;20009;-85
2024/01/08 01:29:25;;;;;;;13.15;7.70;;;;;;;0.71;62.61;94672.34;6158562;23;20067;-85
2024/01/08 01:31:51;;;;;;;13.02;8.10;;;;;;;0.83;62.71;94692.72;6159113;23;20005;-85
2024/01/08 01:34:17;;;;;;;12.57;7.82;;;;;;;0.49;62.99;94682.75;6183405;23;20001;-85
2024/01/08 01:36:45;;;;;;;11.85;7.50;;;;;;;0.51;63.31;94674.00;6159082;23;20013;-85
2024/01/08 01:39:10;;;;;;;12.88;7.72;;;;;;;0.14;64.14;94683.97;6158778;23;20024;-85
2024/01/08 01:41:37;;;;;;;11.95;7.90;;;;;;;-0.10;65.37;94684.22;6159006;23;20009;-85
2024/01/08 01:44:03;;;;;;;10.73;7.03;;;;;;;0.24;63.70;94692.47;6158267;23;20077;-86
2024/01/08 01:46:32;;;;;;;15.52;6.63;;;;;;;0.18;64.09;94685.31;6183799;23;20075;-85
2024/01/08 01:48:57;;;;;;;12.52;8.02;;;;;;;0.17;64.03;94704.16;6159025;23;20005;-86
2024/01/08 01:51:23;;;;;;;12.27;8.90;;;;;;;-0.35;65.69;94690.53;6158904;23;20013;-85
2024/01/08 01:53:49;;;;;;;12.07;8.20;;;;;;;-0.30;65.41;94686.66;6156243;23;20075;-85
2024/01/08 01:56:15;;;;;;;12.23;8.05;;;;;;;-0.19;64.61;94680.69;6156820;23;20044;-85
2024/01/08 01:58:40;;;;;;;12.65;8.57;;;;;;;-0.54;65.93;94694.53;6157008;23;20009;-85
2024/01/08 02:01:06;;;;;;;14.30;9.05;;;;;;;-0.51;66.48;94683.28;6156235;23;20023;-84
2024/01/08 02:03:32;;;;;;;14.23;8.98;;;;;;;-0.42;66.10;94690.19;6182099;23;20021;-85
2024/01/08 02:05:58;;;;;;;11.57;7.60;;;;;;;-0.21;65.17;94675.69;6134360;23;20028;-85
2024/01/08 02:08:25;;;;;;;15.18;8.95;;;;;;;-0.54;66.06;94688.63;6157817;23;20009;-85
2024/01/08 02:10:51;;;;;;;15.77;9.20;;;;;;;0.08;65.39;94681.91;6157035;23;20036;-85
2024/01/08 02:13:16;;;;;;;14.55;9.23;;;;;;;-0.22;65.57;94686.03;6157178;23;20088;-85
2024/01/08 02:15:42;;;;;;;15.85;9.40;;;;;;;-0.34;65.06;94664.03;6159130;23;20036;-85
2024/01/08 02:18:10;;;;;;;15.65;10.27;;;;;;;-0.62;65.91;94666.25;6158461;23;20013;-85
2024/01/08 02:20:35;;;;;;;13.45;8.52;;;;;;;-0.05;65.42;94687.22;6159233;23;20028;-85
2024/01/08 02:23:01;;;;;;;14.82;8.50;;;;;;;-0.25;65.67;94684.56;6182803;23;20040;-85
2024/01/08 02:25:27;;;;;;;14.32;8.82;;;;;;;0.04;64.47;94670.31;6183320;23;20100;-85
2024/01/08 02:27:52;;;;;;;14.70;9.82;;;;;;;-0.27;64.86;94675.38;6158564;23;20020;-86
2024/01/08 02:30:18;;;;;;;14.25;9.40;;;;;;;0.05;64.33;94682.97;6158776;23;20063;-85
2024/01/08 02:32:44;;;;;;;14.15;9.77;;;;;;;0.07;63.59;94682.84;6158179;23;20009;-85
2024/01/08 02:35:09;;;;;;;15.13;9.98;;;;;;;-0.12;64.65;94681.78;6183289;23;20044;-85
2024/01/08 02:37:34;;;;;;;15.15;9.57;;;;;;;-0.26;64.92;94679.56;6183062;23;20012;-85
2024/01/08 02:40:00;;;;;;;15.93;9.32;;;;;;;0.08;64.20;94662.25;6158801;23;20011;-85
2024/01/08 02:42:25;;;;;;;15.02;9.15;;;;;;;-0.62;65.78;94691.81;6133451;23;20005;-85
2024/01/08 02:44:52;;;;;;;15.82;10.10;;;;;;;-0.25;65.26;94686.28;6182831;23;20013;-85
2024/01/08 02:47:19;;;;;;;16.48;9.88;;;;;;;0.10;63.55;94674.94;6134219;23;20032;-86
2024/01/08 02:49:48;;;;;;;16.23;10.15;;;;;;;0.24;63.57;94678.88;6159818;23;20089;-85
2024/01/08 02:52:14;;;;;;;16.00;9.73;;;;;;;0.32;63.75;94672.19;6157886;23;20032;-84
2024/01/08 02:54:39;;;;;;;16.20;9.70;;;;;;;-0.06;63.56;94678.75;6158341;23;20075;-85
2024/01/08 02:57:05;;;;;;;14.85;9.18;;;;;;;0.50;62.49;94680.06;6182975;23;20009;-85
2024/01/08 02:59:30;;;;;;;16.23;10.57;;;;;;;-0.03;62.95;94686.16;6133781;23;20013;-85
2024/01/08 03:01:55;;;;;;;20.85;9.45;;;;;;;0.20;62.91;94675.78;6133333;23;20008;-84
2024/01/08 03:04:21;;;;;;;13.57;7.60;;;;;;;0.50;61.84;94685.19;6158257;23;20012;-85
2024/01/08 03:06:49;;;;;;;13.80;8.75;;;;;;;0.01;62.42;94678.25;6182832;23;20032;-85
2024/01/08 03:09:14;;;;;;;15.18;9.13;;;;;;;-0.16;63.26;94690.66;6158623;23;20060;-85
2024/01/08 03:11:40;;;;;;;14.85;8.45;;;;;;;-0.16;63.76;94677.06;6157770;23;20036;-85
2024/01/08 03:14:05;;;;;;;13.63;8.10;;;;;;;0.30;62.25;94684.28;6158169;23;20005;-85
2024/01/08 03:16:31;;;;;;;13.90;8.93;;;;;;;-0.07;62.55;94681.44;6157834;23;20017;-85
2024/01/08 03:18:56;;;;;;;12.93;8.32;;;;;;;0.13;62.04;94677.22;6157235;23;20020;-85
2024/01/08 03:21:22;;;;;;;13.27;8.07;;;;;;;-0.21;62.80;94687.66;6157525;23;20017;-85
2024/01/08 03:23:47;;;;;;;13.45;8.13;;;;;;;-0.11;63.01;94680.88;6133401;23;20017;-85
2024/01/08 03:26:13;;;;;;;13.38;7.68;;;;;;;0.11;61.55;94673.97;6157831;23;20009;-85
2024/01/08 03:28:38;;;;;;;13.63;7.70;;;;;;;-0.13;62.38;94682.75;6133801;23;20428;-85
2024/01/08 03:31:04;;;;;;;12.23;7.45;;;;;;;0.10;62.36;94685.97;6133252;23;20009;-85
2024/01/08 03:33:29;;;;;;;13.38;8.10;;;;;;;-0.24;64.01;94665.72;6157847;23;20012;-85
2024/01/08 03:35:55;;;;;;;13.15;7.47;;;;;;;-0.53;64.03;94668.09;6157689;23;20040;-85
2024/01/08 03:38:20;;;;;;;14.63;8.48;;;;;;;-0.62;65.91;94681.59;6132971;23;20005;-84
2024/01/08 03:40:46;;;;;;;11.65;7.10;;;;;;;-0.69;65.07;94678.69;6157875;23;20009;-85
2024/01/08 03:43:12;;;;;;;14.15;8.70;;;;;;;-0.57;65.87;94679.47;6159915;23;20004;-85
2024/01/08 03:45:37;;;;;;;14.65;7.47;;;;;;;-0.58;66.36;94693.19;6134521;23;20063;-85
2024/01/08 03:48:03;;;;;;;15.90;8.82;;;;;;;-0.89;67.06;94692.25;6184433;23;20033;-85
2024/01/08 03:50:29;;;;;;;13.73;8.30;;;;;;;-0.99;66.51;94687.03;6159908;23;20008;-85
2024/01/08 03:52:54;;;;;;;15.15;8.50;;;;;;;-0.82;68.50;94689.09;6159951;23;20009;-85
2024/01/08 03:55:20;;;;;;;15.27;8.10;;;;;;;-0.77;66.41;94687.91;6184724;23;20020;-85
2024/01/08 03:57:47;;;;;;;15.10;8.77;;;;;;;-0.60;67.38;94690.72;6158315;23;19997;-85
2024/01/08 04:00:13;;;;;;;12.48;7.05;;;;;;;-0.62;65.51;94692.59;6183197;23;20073;-85
2024/01/08 04:02:42;;;;;;;15.07;7.55;;;;;;;-0.87;66.39;94667.41;6158539;23;20004;-85
2024/01/08 04:05:11;;;;;;;15.23;8.68;;;;;;;-0.75;65.89;94691.97;6183157;23;20008;-85
2024/01/08 04:07:40;;;;;;;14.45;8.45;;;;;;;-1.11;65.49;94685.44;6159286;23;20020;-85
2024/01/08 04:10:06;;;;;;;13.73;8.60;;;;;;;-0.90;64.69;94678.66;6135155;23;20017;-85
2024/01/08 04:12:31;;;;;;;12.35;7.30;;;;;;;-0.76;65.20;94674.19;6134973;23;20160;-85
2024/01/08 04:14:56;;;;;;;14.77;8.15;;;;;;;-1.16;65.19;94700.28;6159707;23;20009;-85
2024/01/08 04:17:22;;;;;;;12.23;7.22;;;;;;;-0.73;64.82;94699.50;6134727;23;20020;-85
2024/01/08 04:19:47;;;;;;;15.88;8.35;;;;;;;-1.23;64.74;94698.22;6158872;23;20017;-85
2024/01/08 04:22:13;;;;;;;13.20;7.72;;;;;;;-0.88;64.23;94687.00;6184027;23;20001;-85
2024/01/08 04:24:40;;;;;;;11.13;7.20;;;;;;;-1.06;63.27;94698.66;6159885;23;20084;-85
2024/01/08 04:27:05;;;;;;;11.75;7.40;;;;;;;-0.97;64.85;94703.06;6134698;23;20064;-85
2024/01/08 04:29:31;;;;;;;12.73;9.20;;;;;;;-1.24;63.27;94700.88;6159166;23;20009;-85
2024/01/08 04:31:57;;;;;;;13.48;7.90;;;;;;;-0.57;62.97;94701.63;6159363;23;20032;-85
2024/01/08 04:34:22;;;;;;;11.98;6.90;;;;;;;-0.38;62.63;94698.44;6158833;23;20005;-85
2024/01/08 04:36:48;;;;;;;13.07;7.93;;;;;;;-0.45;62.56;94704.03;6158998;23;20016;-85
2024/01/08 04:39:13;;;;;;;12.68;7.80;;;;;;;-0.54;62.36;94688.63;6159199;23;20037;-85
2024/01/08 04:41:39;;;;;;;11.00;6.18;;;;;;;-0.49;61.85;94702.66;6133831;23;20005;-85
2024/01/08 04:44:05;;;;;;;14.35;7.85;;;;;;;-0.66;62.62;94700.66;6159177;23;20071;-85
2024/01/08 04:46:30;;;;;;;15.32;8.93;;;;;;;-0.87;62.67;94698.84;6159740;23;20040;-85
2024/01/08 04:48:56;;;;;;;13.27;7.90;;;;;;;-1.01;63.11;94688.88;6183339;23;20063;-85
2024/01/08 04:51:22;;;;;;;14.00;9.48;;;;;;;-0.93;62.43;94696.78;6134412;23;20036;-85
2024/01/08 04:53:50;;;;;;;13.43;7.47;;;;;;;-0.86;62.38;94685.13;6159015;23;20095;-85
2024/01/08 04:56:25;;;;;;;12.85;8.32;;;;;;;-1.16;63.43;94716.44;6184451;23;20004;-85
2024/01/08 04:58:52;;;;;;;13.70;8.45;;;;;;;-0.67;62.39;94724.53;6159041;23;20143;-85
2024/01/08 05:01:17;;;;;;;12.95;7.70;;;;;;;-0.45;61.68;94714.25;6158772;23;20013;-85
2024/01/08 05:03:43;;;;;;;15.63;8.75;;;;;;;-0.85;63.35;94702.09;6158776;23;20060;-85
2024/01/08 05:06:10;;;;;;;15.52;9.93;;;;;;;-1.12;63.89;94716.97;6185213;23;20009;-85
2024/01/08 05:08:38;;;;;;;16.30;9.15;;;;;;;-1.19;63.90;94706.47;6158807;23;20013;-85
2024/01/08 05:11:05;;;;;;;14.75;9.10;;;;;;;-1.08;63.83;94731.97;6134912;23;20010;-85
2024/01/08 05:13:30;;;;;;;14.30;8.50;;;;;;;-0.87;63.16;94698.84;6158536;23;20032;-85
2024/01/08 05:15:55;;;;;;;16.63;8.98;;;;;;;-0.98;63.70;94720.09;6133622;23;20012;-85
2024/01/08 05:18:21;;;;;;;16.33;9.73;;;;;;;-0.60;61.70;94723.13;6183887;23;20005;-85
2024/01/08 05:20:47;;;;;;;15.30;8.98;;;;;;;-0.40;60.79;94717.25;6134151;23;20009;-85
2024/01/08 05:23:13;;;;;;;16.38;9.73;;;;;;;-0.74;61.56;94715.75;6158463;23;20024;-85
2024/01/08 05:25:40;;;;;;;15.98;10.02;;;;;;;-0.72;61.70;94731.75;6183611;23;20008;-84
2024/01/08 05:28:06;;;;;;;15.30;9.05;;;;;;;-0.54;61.30;94725.19;6158959;23;20005;-86
2024/01/08 05:30:34;;;;;;;16.40;9.45;;;;;;;-0.33;60.45;94724.44;6133794;23;20009;-85
2024/01/08 05:32:59;;;;;;;14.80;9.60;;;;;;;-0.68;60.56;94728.06;6182916;23;20001;-85
2024/01/08 05:35:25;;;;;;;15.32;9.10;;;;;;;-0.59;61.51;94722.22;6183465;23;20005;-85
2024/01/08 05:37:50;;;;;;;15.25;9.40;;;;;;;-0.50;60.38;94728.31;6134244;23;20005;-85
2024/01/08 05:40:16;;;;;;;14.63;9.10;;;;;;;-0.35;61.11;94729.66;6158437;23;20044;-85
2024/01/08 05:42:41;;;;;;;15.63;9.63;;;;;;;-0.07;60.37;94735.91;6158387;23;20059;-84
2024/01/08 05:45:07;;;;;;;16.25;9.93;;;;;;;-0.64;61.58;94750.66;6182709;23;20025;-85
2024/01/08 05:47:36;;;;;;;17.48;10.93;;;;;;;-1.04;62.23;94751.22;6158361;23;20001;-85
2024/01/08 05:50:06;;;;;;;14.35;9.02;;;;;;;-0.94;62.41;94756.41;6134856;23;20005;-86
2024/01/08 05:52:32;;;;;;;16.58;9.15;;;;;;;-0.73;61.58;94756.47;6157493;23;20005;-85
2024/01/08 05:54:58;;;;;;;15.32;9.38;;;;;;;-0.88;61.76;94758.47;6157026;23;20050;-85
2024/01/08 05:57:23;;;;;;;15.50;9.73;;;;;;;-1.03;62.36;94744.34;6182223;23;20084;-84
2024/01/08 05:59:49;;;;;;;14.52;8.80;;;;;;;-0.97;61.80;94754.13;6183010;23;20013;-84
2024/01/08 06:02:14;;;;;;;15.45;9.27;;;;;;;-1.43;61.92;94757.59;6158621;23;20013;-85
2024/01/08 06:04:40;;;;;;;14.57;9.00;;;;;;;-1.00;61.66;94764.56;6183112;23;20009;-84
2024/01/08 06:07:05;;;;;;;14.90;9.52;;;;;;;-1.38;62.80;94758.06;6134033;23;20016;-84
2024/01/08 06:09:31;;;;;;;14.77;8.75;;;;;;;-0.92;61.35;94752.00;6159203;23;20087;-84
2024/01/08 06:11:58;;;;;;;13.93;8.50;;;;;;;-1.15;61.80;94755.53;6158386;23;20044;-84
2024/01/08 06:14:24;;;;;;;15.80;8.80;;;;;;;-1.15;62.35;94750.41;6157696;23;20008;-85
2024/01/08 06:16:50;;;;;;;15.07;9.25;;;;;;;-0.86;62.11;94769.38;6158731;23;20091;-85
2024/01/08 06:19:16;;;;;;;12.50;8.45;;;;;;;-1.29;61.22;94792.31;6183736;23;20102;-85
2024/01/08 06:21:42;;;;;;;16.02;9.93;;;;;;;-1.44;62.36;94776.41;6158924;23;20009;-85
2024/01/08 06:24:07;;;;;;;17.98;7.55;;;;;;;-1.42;61.92;94779.66;6183052;23;20018;-85
2024/01/08 06:26:33;;;;;;;14.38;9.18;;;;;;;-1.41;61.53;94801.66;6182864;23;20005;-85
2024/01/08 06:29:00;;;;;;;14.45;9.15;;;;;;;-1.29;61.74;94774.44;6158378;23;20013;-85
2024/01/08 06:31:26;;;;;;;14.73;9.57;;;;;;;-1.58;62.63;94782.50;6133995;23;20004;-85
2024/01/08 06:33:52;;;;;;;14.75;9.23;;;;;;;-1.60;63.21;94785.19;6157829;23;20009;-85
2024/01/08 06:36:17;;;;;;;15.88;9.23;;;;;;;-1.77;63.85;94801.75;6158179;23;20012;-84
2024/01/08 06:38:43;;;;;;;14.73;9.70;;;;;;;-2.04;63.78;94779.06;6158092;23;20020;-85
2024/01/08 06:41:09;;;;;;;18.52;9.68;;;;;;;-1.66;64.38;94802.69;6134378;23;20012;-85
2024/01/08 06:43:35;;;;;;;18.35;11.30;;;;;;;-2.24;63.99;94777.97;6157946;23;20015;-85
2024/01/08 06:46:00;;;;;;;14.55;9.18;;;;;;;-1.51;62.98;94809.19;6157955;23;20021;-85
2024/01/08 06:48:26;;;;;;;16.52;9.30;;;;;;;-1.55;63.02;94779.75;6158736;23;20009;-85
2024/01/08 06:50:52;;;;;;;16.23;9.35;;;;;;;-1.75;62.96;94782.94;6158004;23;20041;-84
2024/01/08 06:53:18;;;;;;;19.77;10.70;;;;;;;-1.85;64.22;94811.66;6158547;23;20020;-85
2024/01/08 06:55:43;;;;;;;16.90;10.13;;;;;;;-1.50;62.10;94803.19;6183699;23;20009;-85
2024/01/08 06:58:08;;;;;;;16.55;9.98;;;;;;;-1.84;63.53;94790.38;6183097;23;20083;-85
2024/01/08 07:00:35;;;;;;;16.98;9.50;;;;;;;-1.95;63.80;94808.16;6183290;23;20001;-85
2024/01/08 07:03:00;;;;;;;15.93;9.32;;;;;;;-1.37;61.81;94792.88;6160106;23;20075;-85
2024/01/08 07:05:26;;;;;;;14.88;9.00;;;;;;;-1.47;61.71;94827.63;6136132;23;20009;-86
2024/01/08 07:07:56;;;;;;;16.73;10.43;;;;;;;-1.67;62.31;94796.78;6132945;23;20023;-86
2024/01/08 07:10:21;;;;;;;19.00;10.57;;;;;;;-1.09;61.46;94800.97;6158526;23;20009;-86
2024/01/08 07:12:46;;;;;;;15.40;9.88;;;;;;;-1.69;61.94;94805.47;6182641;23;20013;-86
2024/01/08 07:15:41;;;;;;;16.35;10.82;;;;;;;-1.78;63.40;94819.69;6132811;23;20064;-85
2024/01/08 07:18:10;;;;;;;16.63;9.90;;;;;;;-1.63;61.94;94818.56;6156281;23;20094;-86
2024/01/08 07:20:37;;;;;;;17.27;10.88;;;;;;;-2.38;64.28;94819.72;6133880;23;20013;-86
2024/01/08 07:23:15;;;;;;;18.45;11.52;;;;;;;-2.23;64.19;94809.34;6157908;23;20091;-86
2024/01/08 07:25:44;;;;;;;17.40;10.52;;;;;;;-1.70;63.48;94825.03;6158249;23;20032;-86
2024/01/08 07:28:11;;;;;;;17.77;9.85;;;;;;;-1.60;62.65;94828.56;6133967;23;20016;-86
2024/01/08 07:30:37;;;;;;;15.55;9.40;;;;;;;-1.47;61.95;94815.69;6182667;23;20071;-86
2024/01/08 07:33:03;;;;;;;18.08;11.10;;;;;;;-1.78;62.35;94812.03;6158072;23;20350;-86
2024/01/08 07:35:30;;;;;;;16.58;9.98;;;;;;;-1.63;62.28;94827.97;6158456;23;20025;-86
2024/01/08 07:37:55;;;;;;;18.08;11.52;;;;;;;-1.88;63.50;94816.19;6157027;23;20017;-86
2024/01/08 07:40:25;;;;;;;17.40;10.63;;;;;;;-1.78;62.22;94832.44;6131562;23;20040;-86
2024/01/08 07:42:55;;;;;;;16.88;9.90;;;;;;;-1.83;63.09;94826.84;6181258;23;20001;-86
2024/01/08 07:45:27;;;;;;;18.98;11.65;;;;;;;-1.63;62.66;94838.97;6155882;23;20032;-85
2024/01/08 07:47:54;;;;;;;17.15;10.40;;;;;;;-1.98;63.27;94844.91;6131325;23;20025;-86
2024/01/08 07:50:20;;;;;;;18.27;9.93;;;;;;;-1.50;61.44;94836.34;6157532;23;20080;-86
2024/01/08 07:52:46;;;;;;;14.95;10.27;;;;;;;-1.86;62.64;94852.59;6157583;23;20036;-86
2024/01/08 07:55:11;;;;;;;17.75;10.35;;;;;;;-1.47;61.77;94842.94;6132736;23;20016;-86
2024/01/08 07:57:38;;;;;;;17.00;10.88;;;;;;;-1.91;62.55;94844.44;6133257;23;20013;-85
2024/01/08 08:00:06;;;;;;;18.77;11.75;;;;;;;-1.95;62.80;94848.94;6157777;23;20020;-86
2024/01/08 08:02:35;;;;;;;18.95;10.75;;;;;;;-1.78;62.85;94855.38;6133432;23;20026;-86
2024/01/08 08:05:00;;;;;;;15.70;9.52;;;;;;;-1.56;62.05;94849.53;6133242;23;20084;-86
2024/01/08 08:07:27;;;;;;;16.85;10.32;;;;;;;-2.22;63.68;94849.19;6181699;23;20043;-86
2024/01/08 08:09:52;;;;;;;18.58;10.68;;;;;;;-2.17;63.72;94859.84;6182581;23;20005;-86
2024/01/08 08:12:19;;;;;;;15.77;10.00;;;;;;;-2.30;63.88;94859.09;6181616;23;20020;-85
2024/01/08 08:14:47;;;;;;;15.63;9.27;;;;;;;-1.69;62.83;94872.56;6158647;23;20005;-85
2024/01/08 08:17:13;;;;;;;17.98;10.50;;;;;;;-1.55;62.11;94860.56;6158503;23;20016;-86
2024/01/08 08:19:43;;;;;;;16.15;9.75;;;;;;;-1.27;60.58;94872.91;6182937;23;20016;-86
2024/01/08 08:22:12;;;;;;;18.45;10.63;;;;;;;-1.81;62.45;94869.19;6157356;23;20001;-86
2024/01/08 08:24:41;;;;;;;18.35;11.23;;;;;;;-1.91;62.17;94877.59;6157214;23;20009;-86
2024/01/08 08:27:11;;;;;;;17.70;10.52;;;;;;;-1.86;62.55;94878.88;6157933;23;20017;-86
2024/01/08 08:29:45;;;;;;;20.25;11.57;;;;;;;-0.77;59.55;94874.31;6135584;23;20013;-86
2024/01/08 08:32:11;;;;;;;18.30;10.88;;;;;;;-1.34;60.97;94864.06;6159284;23;20069;-86
2024/01/08 08:34:37;;;;;;;16.75;10.35;;;;;;;-1.26;61.05;94887.25;6159112;23;20044;-86
2024/01/08 08:37:03;;;;;;;18.83;10.60;;;;;;;-1.14;59.68;94869.41;6159546;23;20005;-86
2024/01/08 08:39:30;;;;;;;17.73;10.98;;;;;;;-0.56;59.46;94885.44;6134895;23;20009;-86
2024/01/08 08:41:55;;;;;;;16.50;11.43;;;;;;;-1.48;61.76;94885.50;6135226;23;20032;-86
2024/01/08 08:44:21;;;;;;;18.73;11.20;;;;;;;-1.17;60.61;94887.53;6159034;23;20028;-86
2024/01/08 08:46:46;;;;;;;18.35;11.90;;;;;;;-1.40;61.04;94888.28;6159929;23;20065;-86
2024/01/08 08:49:16;;;;;;;17.88;11.13;;;;;;;-1.14;60.49;94877.91;6183274;23;20001;-86
2024/01/08 08:51:42;;;;;;;19.73;11.55;;;;;;;-1.36;60.20;94865.13;6183664;23;20064;-87
2024/01/08 08:54:08;;;;;;;18.65;10.30;;;;;;;-0.86;60.42;94891.13;6184040;23;20105;-86
2024/01/08 08:56:34;;;;;;;17.63;10.93;;;;;;;-1.12;61.02;94881.16;6134547;23;20033;-86
2024/01/08 08:59:00;;;;;;;18.17;10.45;;;;;;;-1.03;60.02;94888.13;6158687;23;20013;-86
2024/01/08 09:01:29;;;;;;;18.02;11.63;;;;;;;-1.84;62.43;94892.31;6158593;23;20004;-86
2024/01/08 09:03:54;;;;;;;17.65;9.77;;;;;;;-1.36;60.46;94880.41;6157366;23;20012;-87
2024/01/08 09:06:23;;;;;;;16.80;10.68;;;;;;;-1.04;59.70;94901.81;6133698;23;20005;-86
2024/01/08 09:08:50;;;;;;;17.88;10.32;;;;;;;-1.22;60.48;94913.38;6158514;23;20000;-86
2024/01/08 09:11:15;;;;;;;17.50;10.63;;;;;;;-0.85;59.22;94887.66;6158381;23;20013;-86
2024/01/08 09:13:42;;;;;;;15.70;10.43;;;;;;;-0.96;58.93;94905.53;6158533;23;20012;-87
2024/01/08 09:16:14;;;;;;;15.23;9.95;;;;;;;-0.57;58.02;94906.00;6158686;23;20016;-85
2024/01/08 09:18:40;;;;;;;16.02;10.25;;;;;;;-0.94;58.51;94888.34;6158603;23;20005;-86
2024/01/08 09:21:12;;;;;;;16.00;10.32;;;;;;;-1.19;59.72;94908.84;6158725;23;20028;-86
2024/01/08 09:23:40;;;;;;;16.58;10.38;;;;;;;-1.31;59.67;94894.47;6159233;23;20004;-87
2024/01/08 09:26:05;;;;;;;16.52;10.05;;;;;;;-1.04;58.39;94898.44;6134652;23;20067;-86
2024/01/08 09:28:35;;;;;;;17.35;10.90;;;;;;;-1.44;59.48;94909.03;6159069;23;20005;-87
2024/01/08 09:31:02;;;;;;;16.95;10.05;;;;;;;-0.77;58.81;94903.22;6159384;23;20076;-86
2024/01/08 09:33:28;;;;;;;18.00;10.88;;;;;;;-1.63;59.98;94897.63;6158394;23;20009;-86
2024/01/08 09:35:54;;;;;;;17.40;10.65;;;;;;;-0.99;59.89;94919.31;6159139;23;20023;-86
2024/01/08 09:38:20;;;;;;;16.58;10.45;;;;;;;-1.07;58.68;94901.22;6157617;23;20027;-86
2024/01/08 09:40:47;;;;;;;14.60;9.38;;;;;;;-1.17;60.04;94916.41;6158144;23;20008;-86
2024/01/08 09:43:15;;;;;;;15.23;9.63;;;;;;;-1.02;59.47;94906.81;6158458;23;20055;-86
2024/01/08 09:46:05;;;;;;;16.50;9.90;;;;;;;-1.08;59.34;94909.81;6134790;23;20112;-86
2024/01/08 09:48:31;;;;;;;17.23;9.95;;;;;;;-0.64;58.55;94908.22;6158280;23;20009;-87
2024/01/08 09:51:01;;;;;;;16.73;10.27;;;;;;;-0.62;57.72;94901.25;6159035;23;20013;-87
2024/01/08 09:53:32;;;;;;;16.33;9.20;;;;;;;-1.16;59.56;94917.22;6158622;23;20005;-87
2024/01/08 09:55:58;;;;;;;16.40;11.05;;;;;;;-1.15;59.79;94911.19;6159445;23;20047;-87
2024/01/08 09:58:25;;;;;;;16.73;10.43;;;;;;;-0.94;58.26;94903.69;6157743;23;20001;-84
2024/01/08 10:00:51;;;;;;;15.57;9.07;;;;;;;-0.75;58.77;94915.88;6158489;23;20012;-85
2024/01/08 10:03:17;;;;;;;15.57;10.35;;;;;;;-1.33;58.93;94915.91;6158221;23;20025;-85
2024/01/08 10:05:42;;;;;;;16.77;10.15;;;;;;;-1.43;60.39;94915.75;6182806;23;20012;-85
2024/01/08 10:08:08;;;;;;;14.77;9.45;;;;;;;-0.98;59.00;94908.19;6158805;23;20012;-85
2024/01/08 10:10:34;;;;;;;14.57;9.25;;;;;;;-0.83;58.85;94926.66;6158162;23;20005;-86
2024/01/08 10:13:02;;;;;;;16.25;9.88;;;;;;;-1.02;58.78;94909.34;6158423;23;20028;-88
2024/01/08 14:42:24;;;;;;;22.60;11.52;;;;;;;-0.14;58.45;94975.06;6220358;23;20081;-87
2024/01/08 14:44:52;;;;;;;23.42;12.05;;;;;;;-0.80;60.71;94952.78;6219203;22;20047;-86
2024/01/08 15:36:20;;;;;;;21.20;10.88;;;;;;;-0.09;58.21;94995.19;6154248;23;20029;-87
2024/01/08 15:38:46;;;;;;;17.73;10.30;;;;;;;-0.07;58.05;94994.13;6106044;23;20013;-87
2024/01/08 15:48:50;;;;;;;19.02;11.25;;;;;;;-0.77;59.50;95004.56;6185097;23;20029;-86
2024/01/08 21:09:41;;;;;;;27.15;14.10;;;;;;;0.38;58.42;95147.56;6180517;23;20033;-87
2024/01/08 21:12:07;;;;;;;25.85;14.68;;;;;;;-0.01;59.15;95141.13;6188120;23;20087;-87
2024/01/08 21:14:33;;;;;;;25.38;13.38;;;;;;;0.38;58.66;95141.59;6188606;23;20040;-87
2024/01/08 21:16:58;;;;;;;23.70;13.40;;;;;;;0.36;58.08;95143.47;6189286;23;20011;-87
2024/01/08 21:19:24;;;;;;;25.67;14.57;;;;;;;-0.15;59.07;95128.56;6165080;23;20004;-88
2024/01/08 21:32:01;;;;;;;23.95;12.93;;;;;;;0.63;57.36;95130.31;6187824;23;20025;-87
2024/01/08 21:34:27;;;;;;;26.65;14.38;;;;;;;0.13;58.66;95133.25;6189265;23;20005;-86
2024/01/08 21:36:52;;;;;;;28.02;14.40;;;;;;;0.56;57.83;95144.50;6139472;23;20013;-86
2024/01/08 21:54:43;;;;;;;27.52;14.50;;;;;;;0.17;58.53;95126.13;6210155;23;20009;-87
2024/01/08 21:57:08;;;;;;;26.65;14.25;;;;;;;0.53;57.39;95130.22;6164048;23;20016;-87
2024/01/08 21:59:34;;;;;;;26.63;14.52;;;;;;;0.23;58.44;95138.47;6163894;23;20091;-87
2024/01/08 22:04:34;;;;;;;23.90;14.02;;;;;;;0.34;58.42;95142.75;6191124;23;20816;-87
2024/01/08 22:41:25;;;;;;;26.58;13.75;;;;;;;0.59;58.04;95149.38;6183773;23;20032;-88
2024/01/08 22:43:54;;;;;;;27.52;14.05;;;;;;;0.57;58.16;95146.97;6182192;23;20013;-87
2024/01/08 22:46:19;;;;;;;27.13;14.18;;;;;;;0.45;57.79;95154.75;6181138;23;20075;-87
2024/01/08 22:48:44;;;;;;;23.73;13.02;;;;;;;0.50;57.57;95150.91;6194343;23;20084;-87
2024/01/08 22:51:11;;;;;;;25.77;14.15;;;;;;;0.41;56.78;95125.22;6193435;23;20004;-88
2024/01/08 22:53:36;;;;;;;27.40;14.38;;;;;;;0.71;57.51;95145.88;6168075;23;20012;-87
2024/01/08 22:56:04;;;;;;;27.17;13.68;;;;;;;0.83;56.83;95141.56;6192837;23;20071;-88
2024/01/08 23:01:09;;;;;;;24.15;12.85;;;;;;;0.72;56.85;95139.84;6213503;23;20035;-87
2024/01/08 23:03:35;;;;;;;27.27;14.43;;;;;;;0.78;56.82;95143.66;6212811;23;19996;-89
2024/01/08 23:08:26;;;;;;;25.40;14.05;;;;;;;1.00;56.11;95131.75;6181563;23;20021;-86
2024/01/08 23:10:51;;;;;;;25.88;13.68;;;;;;;0.93;56.31;95123.72;6133966;23;20013;-87